Time;durP1;ratioP1;P1;durP2;ratioP2;P2;SDS_P1;SDS_P2;PMS_P1;PMS_P2;Temp;Humidity;BMP_temperature;BMP_pressure;BME280_temperature;BME280_humidity;BME280_pressure;Samples;Min_cycle;Max_cycle;Signal;HPM_P1;HPM_P2
2021/01/10 00:01:21;;;;;;;17.08;10.23;;;2.80;81.40;;;;;;4885309;29;20040;-88
2021/01/10 00:03:47;;;;;;;14.88;9.82;;;2.80;81.40;;;;;;4885602;29;20035;-88
2021/01/10 00:06:13;;;;;;;15.55;9.48;;;2.80;81.40;;;;;;4899760;29;20056;-88
2021/01/10 00:08:38;;;;;;;16.17;10.10;;;2.80;81.40;;;;;;4901418;29;20134;-88
2021/01/10 00:11:04;;;;;;;18.55;11.73;;;2.80;81.40;;;;;;4886033;29;20076;-88
2021/01/10 00:13:31;;;;;;;19.00;11.02;;;2.80;81.40;;;;;;4901200;29;20135;-88
2021/01/10 00:15:57;;;;;;;18.30;11.43;;;2.80;81.40;;;;;;4917187;29;20058;-88
2021/01/10 00:18:22;;;;;;;17.48;11.13;;;2.80;81.30;;;;;;4885830;29;20482;-88
2021/01/10 00:20:48;;;;;;;18.15;10.45;;;2.80;81.40;;;;;;4901497;29;20486;-89
2021/01/10 00:23:14;;;;;;;17.85;10.77;;;2.80;81.30;;;;;;4901067;29;20036;-88
2021/01/10 00:25:39;;;;;;;21.48;11.75;;;2.80;81.40;;;;;;4909542;29;20114;-88
2021/01/10 00:28:06;;;;;;;15.77;10.50;;;2.80;81.40;;;;;;4919835;29;20513;-88
2021/01/10 00:30:32;;;;;;;17.63;10.10;;;2.70;81.30;;;;;;4920203;29;20195;-88
2021/01/10 00:32:58;;;;;;;17.67;10.82;;;2.80;81.40;;;;;;4920202;29;20130;-88
2021/01/10 00:35:24;;;;;;;16.40;10.23;;;2.80;81.40;;;;;;4899528;29;20129;-88
2021/01/10 00:37:55;;;;;;;16.35;10.63;;;2.80;81.40;;;;;;4901206;29;20193;-87
2021/01/10 00:40:25;;;;;;;17.55;10.98;;;2.80;81.40;;;;;;4917413;29;20055;-88
2021/01/10 00:42:51;;;;;;;17.63;10.68;;;2.80;81.40;;;;;;4885351;29;20068;-88
2021/01/10 00:45:17;;;;;;;17.33;10.73;;;2.80;81.40;;;;;;4907545;29;20043;-88
2021/01/10 00:47:43;;;;;;;17.17;11.20;;;2.80;81.40;;;;;;4904080;29;20051;-88
2021/01/10 00:50:10;;;;;;;19.67;10.88;;;2.80;81.40;;;;;;4936635;29;20031;-88
2021/01/10 00:52:36;;;;;;;21.77;11.80;;;2.80;81.40;;;;;;4888521;29;20059;-88
2021/01/10 00:55:03;;;;;;;19.55;11.48;;;2.80;81.40;;;;;;4903945;29;20036;-88
2021/01/10 00:57:29;;;;;;;20.90;11.93;;;2.80;81.40;;;;;;4935433;29;20035;-83
2021/01/10 00:59:55;;;;;;;18.20;11.55;;;2.80;81.40;;;;;;4919543;29;20067;-90
2021/01/10 01:02:20;;;;;;;21.15;12.23;;;2.80;81.40;;;;;;4903527;29;20052;-90
2021/01/10 01:04:47;;;;;;;20.65;11.35;;;2.80;81.30;;;;;;4898129;29;20115;-90
2021/01/10 01:07:14;;;;;;;22.30;12.02;;;2.80;81.30;;;;;;4884942;29;20044;-90
2021/01/10 01:09:39;;;;;;;23.58;13.07;;;2.80;81.30;;;;;;4905151;23;20052;-93
2021/01/10 01:12:06;;;;;;;21.98;12.75;;;2.80;81.30;;;;;;4887745;29;20447;-94
2021/01/10 01:14:31;;;;;;;21.92;12.23;;;2.80;81.30;;;;;;4903610;29;20103;-94
2021/01/10 01:17:00;;;;;;;21.42;12.15;;;2.80;81.90;;;;;;4887176;29;20052;-94
2021/01/10 01:19:25;;;;;;;22.30;12.35;;;2.80;81.20;;;;;;4887837;29;20040;-94
2021/01/10 01:21:59;;;;;;;22.08;12.30;;;2.70;81.20;;;;;;4887596;29;20383;-94
2021/01/10 01:24:25;;;;;;;25.00;12.43;;;2.80;81.20;;;;;;4903345;29;20123;-94
2021/01/10 01:26:51;;;;;;;23.20;12.73;;;2.70;81.10;;;;;;4902988;29;20064;-94
2021/01/10 01:29:16;;;;;;;21.52;13.05;;;2.70;81.10;;;;;;4887017;29;20421;-93
2021/01/10 01:31:42;;;;;;;22.70;12.75;;;2.70;81.00;;;;;;4902211;29;20474;-93
2021/01/10 01:34:08;;;;;;;23.15;13.52;;;2.70;81.00;;;;;;4886293;29;20036;-94
2021/01/10 01:36:34;;;;;;;24.00;13.07;;;2.70;81.00;;;;;;4882835;29;20045;-93
2021/01/10 01:39:03;;;;;;;22.73;12.82;;;2.70;80.90;;;;;;4883402;29;20049;-93
2021/01/10 01:41:36;;;;;;;21.48;12.23;;;2.70;80.90;;;;;;4882754;29;20041;-93
2021/01/10 01:44:02;;;;;;;24.10;13.57;;;2.60;80.80;;;;;;4882476;29;20089;-92
2021/01/10 01:46:36;;;;;;;24.30;13.50;;;2.60;80.70;;;;;;4882375;29;20040;-93
2021/01/10 01:49:12;;;;;;;27.35;14.55;;;2.60;80.70;;;;;;4882884;29;20043;-92
2021/01/10 01:51:47;;;;;;;24.65;14.02;;;2.60;80.70;;;;;;4882342;29;20075;-92
2021/01/10 01:54:20;;;;;;;25.60;14.70;;;2.60;80.70;;;;;;4881738;29;20044;-92
2021/01/10 01:56:46;;;;;;;27.73;15.57;;;2.60;80.60;;;;;;4881664;29;20029;-92
2021/01/10 01:59:17;;;;;;;26.00;14.75;;;2.60;80.60;;;;;;4882993;29;20051;-93
2021/01/10 02:01:43;;;;;;;28.73;15.88;;;2.50;80.50;;;;;;4883298;29;20044;-92
2021/01/10 02:04:28;;;;;;;29.77;15.73;;;2.50;80.40;;;;;;4885788;29;20132;-93
2021/01/10 02:07:03;;;;;;;30.50;17.13;;;2.60;80.40;;;;;;4883190;29;20028;-93
2021/01/10 02:09:31;;;;;;;33.78;18.00;;;2.50;80.30;;;;;;4882812;29;20048;-92
2021/01/10 02:12:01;;;;;;;29.13;16.52;;;2.50;80.30;;;;;;4883173;29;20043;-93
2021/01/10 02:14:32;;;;;;;28.70;16.75;;;2.50;80.30;;;;;;4898483;29;20099;-93
2021/01/10 02:17:00;;;;;;;26.42;15.27;;;2.50;80.30;;;;;;4882979;29;20495;-93
2021/01/10 02:19:35;;;;;;;26.58;15.02;;;2.50;80.30;;;;;;4883059;29;20048;-93
2021/01/10 02:22:05;;;;;;;24.25;13.82;;;2.40;80.20;;;;;;4882329;29;20045;-90
2021/01/10 02:24:33;;;;;;;24.42;14.48;;;2.40;80.30;;;;;;4881002;29;20131;-91
2021/01/10 02:27:04;;;;;;;23.25;13.80;;;2.40;80.20;;;;;;4881698;29;20047;-91
2021/01/10 02:29:30;;;;;;;22.40;13.50;;;2.40;80.20;;;;;;4880356;29;20036;-91
2021/01/10 02:31:58;;;;;;;21.20;12.90;;;2.40;80.20;;;;;;4880396;29;20128;-90
2021/01/10 02:34:25;;;;;;;22.75;13.00;;;2.40;80.20;;;;;;4880506;29;20123;-90
2021/01/10 02:37:20;;;;;;;23.10;13.63;;;2.40;80.20;;;;;;4880775;29;20084;-90
2021/01/10 02:39:46;;;;;;;22.73;12.93;;;2.40;80.20;;;;;;4880677;29;20044;-91
2021/01/10 02:42:20;;;;;;;23.02;13.45;;;2.40;80.20;;;;;;4880872;29;20037;-93
2021/01/10 02:45:19;;;;;;;22.30;13.15;;;2.30;80.20;;;;;;4882371;29;20036;-92
2021/01/10 02:47:47;;;;;;;22.38;13.35;;;2.40;80.20;;;;;;4882442;29;20119;-92
2021/01/10 02:50:17;;;;;;;22.58;14.00;;;2.30;80.10;;;;;;4881519;29;20060;-93
2021/01/10 02:52:46;;;;;;;20.65;12.93;;;2.30;80.10;;;;;;4882357;29;20506;-93
2021/01/10 02:55:13;;;;;;;23.50;13.75;;;2.30;80.10;;;;;;4882472;29;20037;-93
2021/01/10 02:57:39;;;;;;;20.83;12.32;;;2.30;80.10;;;;;;4882168;29;20037;-92
2021/01/10 03:00:15;;;;;;;21.27;12.30;;;2.30;80.10;;;;;;4890051;29;20059;-90
2021/01/10 03:02:43;;;;;;;24.35;13.02;;;2.30;80.10;;;;;;4899472;29;20070;-90
2021/01/10 03:05:15;;;;;;;22.55;12.88;;;2.30;80.10;;;;;;4899128;29;20100;-90
2021/01/10 03:07:47;;;;;;;20.33;12.40;;;2.30;80.10;;;;;;4899011;29;20475;-90
2021/01/10 03:10:13;;;;;;;21.83;13.32;;;2.30;80.00;;;;;;4881173;29;20071;-89
2021/01/10 03:12:39;;;;;;;23.17;13.70;;;2.30;80.00;;;;;;4894482;29;20163;-89
2021/01/10 03:15:07;;;;;;;20.85;13.07;;;2.20;79.90;;;;;;4880428;29;20048;-89
2021/01/10 03:17:37;;;;;;;20.70;13.55;;;2.20;79.90;;;;;;4879763;29;20582;-89
2021/01/10 03:20:15;;;;;;;22.58;13.20;;;2.20;79.90;;;;;;4880299;29;20448;-89
2021/01/10 03:22:41;;;;;;;21.00;12.88;;;2.20;79.80;;;;;;4880066;29;20048;-90
2021/01/10 03:25:22;;;;;;;21.85;13.15;;;2.20;79.80;;;;;;4880580;29;20044;-89
2021/01/10 03:27:55;;;;;;;23.27;13.82;;;2.20;79.80;;;;;;4880180;29;20040;-88
2021/01/10 03:30:21;;;;;;;23.85;13.23;;;2.20;79.80;;;;;;4880238;29;20052;-89
2021/01/10 03:32:46;;;;;;;24.27;14.00;;;2.20;79.70;;;;;;4880264;29;20041;-89
2021/01/10 03:35:15;;;;;;;23.13;13.45;;;2.20;79.80;;;;;;4896646;29;20043;-89
2021/01/10 03:37:41;;;;;;;24.25;14.77;;;2.10;79.70;;;;;;4880470;29;20051;-88
2021/01/10 03:40:07;;;;;;;23.08;14.57;;;2.10;79.70;;;;;;4882786;29;20040;-89
2021/01/10 03:42:39;;;;;;;21.50;13.48;;;2.10;79.70;;;;;;4886948;29;20044;-89
2021/01/10 03:45:07;;;;;;;21.60;13.75;;;2.10;79.70;;;;;;4902215;29;20036;-89
2021/01/10 03:47:32;;;;;;;19.65;13.15;;;2.10;79.70;;;;;;4902354;29;20040;-89
2021/01/10 03:50:05;;;;;;;21.10;12.95;;;2.10;79.80;;;;;;4902840;29;20123;-90
2021/01/10 03:52:35;;;;;;;22.10;14.10;;;2.10;79.80;;;;;;4902017;29;20033;-89
2021/01/10 03:55:01;;;;;;;20.48;13.45;;;2.10;79.90;;;;;;4902731;29;20032;-89
2021/01/10 03:57:42;;;;;;;24.17;13.85;;;2.10;79.90;;;;;;4901730;29;20039;-89
2021/01/10 04:00:25;;;;;;;20.92;14.10;;;2.10;79.90;;;;;;4902329;29;20044;-89
2021/01/10 04:02:58;;;;;;;21.10;12.77;;;2.10;79.90;;;;;;4901596;29;20055;-88
2021/01/10 04:05:44;;;;;;;22.15;12.80;;;2.10;79.90;;;;;;4901495;29;20044;-88
2021/01/10 04:08:21;;;;;;;19.48;12.95;;;2.10;80.00;;;;;;4897857;29;20064;-88
2021/01/10 04:11:09;;;;;;;18.50;11.98;;;2.10;80.00;;;;;;4866388;29;20117;-89
2021/01/10 04:13:35;;;;;;;21.63;12.35;;;2.10;80.00;;;;;;4881676;29;20033;-88
2021/01/10 04:16:01;;;;;;;22.05;13.68;;;2.00;80.00;;;;;;4851288;29;20062;-88
2021/01/10 04:18:27;;;;;;;19.58;12.88;;;2.00;80.00;;;;;;4881569;29;20032;-88
2021/01/10 04:20:52;;;;;;;23.33;14.00;;;2.00;80.00;;;;;;4866709;29;20066;-89
2021/01/10 04:23:18;;;;;;;20.90;13.23;;;2.10;80.10;;;;;;4878348;29;20084;-88
2021/01/10 04:25:44;;;;;;;20.52;13.52;;;2.10;80.10;;;;;;4863381;29;20045;-88
2021/01/10 04:28:27;;;;;;;23.13;14.32;;;2.10;80.20;;;;;;4863224;29;20037;-88
2021/01/10 04:30:53;;;;;;;23.15;13.02;;;2.00;80.10;;;;;;4864572;29;20142;-88
2021/01/10 04:33:18;;;;;;;22.67;14.40;;;2.00;80.10;;;;;;4881529;29;20260;-88
2021/01/10 04:35:44;;;;;;;21.77;13.40;;;2.10;80.20;;;;;;4878900;29;20049;-88
2021/01/10 04:38:10;;;;;;;20.38;13.77;;;2.00;80.20;;;;;;4866761;29;20041;-89
2021/01/10 04:40:35;;;;;;;22.50;13.63;;;2.00;80.20;;;;;;4883251;29;20526;-89
2021/01/10 04:43:11;;;;;;;21.80;14.18;;;2.00;80.20;;;;;;4889369;29;20048;-89
2021/01/10 04:45:37;;;;;;;20.15;12.95;;;2.00;80.30;;;;;;4901974;29;20365;-89
2021/01/10 04:48:04;;;;;;;19.35;13.50;;;2.00;80.30;;;;;;4886229;29;20084;-89
2021/01/10 04:50:51;;;;;;;21.30;14.13;;;2.00;80.30;;;;;;4900559;29;20087;-88
2021/01/10 04:53:20;;;;;;;20.73;13.00;;;2.00;80.40;;;;;;4901657;29;20107;-88
2021/01/10 04:55:47;;;;;;;20.83;14.25;;;2.00;80.40;;;;;;4901894;29;20043;-87
2021/01/10 04:58:13;;;;;;;19.15;12.70;;;2.00;80.40;;;;;;4886635;29;20180;-88
2021/01/10 05:00:41;;;;;;;19.23;12.77;;;2.00;80.40;;;;;;4886195;29;20509;-88
2021/01/10 05:03:09;;;;;;;21.23;12.55;;;2.00;80.40;;;;;;4902358;29;20041;-89
2021/01/10 05:05:36;;;;;;;19.75;13.38;;;2.00;80.40;;;;;;4918080;29;20619;-88
2021/01/10 05:08:28;;;;;;;20.15;12.90;;;2.00;80.40;;;;;;4902197;29;20044;-88
2021/01/10 05:10:54;;;;;;;21.42;12.73;;;2.00;80.40;;;;;;4901850;29;20489;-88
2021/01/10 05:13:19;;;;;;;20.63;13.07;;;2.10;80.50;;;;;;4892652;29;20186;-88
2021/01/10 05:16:01;;;;;;;20.70;13.20;;;2.00;80.40;;;;;;4883185;29;20043;-87
2021/01/10 05:18:27;;;;;;;20.60;13.63;;;2.10;80.50;;;;;;4882400;29;20040;-88
2021/01/10 05:20:53;;;;;;;19.33;13.05;;;2.00;80.50;;;;;;4884508;29;20059;-88
2021/01/10 05:23:25;;;;;;;21.40;12.85;;;2.10;80.50;;;;;;4883040;29;20041;-88
2021/01/10 05:26:30;;;;;;;19.60;12.75;;;2.10;80.50;;;;;;4882820;29;20065;-88
2021/01/10 05:29:03;;;;;;;18.70;12.55;;;2.10;80.50;;;;;;4897374;29;20029;-88
2021/01/10 05:31:33;;;;;;;19.15;12.75;;;2.10;80.60;;;;;;4882675;29;20122;-88
2021/01/10 05:34:16;;;;;;;19.92;12.38;;;2.10;80.50;;;;;;4860203;29;20121;-88
2021/01/10 05:36:43;;;;;;;17.88;12.10;;;2.10;80.50;;;;;;4860279;29;20041;-88
2021/01/10 05:39:28;;;;;;;19.27;12.73;;;2.10;80.60;;;;;;4845363;29;20049;-88
2021/01/10 05:41:57;;;;;;;22.90;12.85;;;2.10;80.60;;;;;;4860147;29;20117;-88
2021/01/10 05:44:30;;;;;;;19.08;12.20;;;2.10;80.60;;;;;;4878304;29;20048;-89
2021/01/10 05:47:05;;;;;;;19.35;12.45;;;2.10;80.70;;;;;;4863132;29;20041;-88
2021/01/10 05:49:50;;;;;;;18.40;12.13;;;2.10;80.70;;;;;;4863191;29;20554;-89
2021/01/10 05:52:17;;;;;;;19.45;12.63;;;2.10;80.70;;;;;;4863142;29;20033;-87
2021/01/10 05:54:43;;;;;;;22.55;12.75;;;2.10;80.70;;;;;;4863071;29;20048;-88
2021/01/10 05:57:11;;;;;;;19.48;12.88;;;2.10;80.70;;;;;;4878840;29;20487;-88
2021/01/10 06:00:16;;;;;;;20.75;13.52;;;2.10;80.70;;;;;;4879358;29;20045;-88
2021/01/10 06:03:05;;;;;;;18.80;12.65;;;2.10;80.70;;;;;;4859573;29;20069;-90
2021/01/10 06:05:31;;;;;;;20.65;12.77;;;2.10;80.70;;;;;;4870985;29;20060;-87
2021/01/10 06:07:56;;;;;;;20.98;13.02;;;2.10;80.70;;;;;;4861542;29;20041;-87
2021/01/10 06:10:29;;;;;;;21.52;13.07;;;2.10;80.70;;;;;;4845587;29;20056;-86
2021/01/10 06:13:02;;;;;;;21.48;12.90;;;2.10;80.80;;;;;;4861745;29;20551;-87
2021/01/10 06:15:31;;;;;;;20.42;12.18;;;2.10;80.80;;;;;;4879801;29;20613;-88
2021/01/10 06:18:01;;;;;;;17.95;11.85;;;2.10;80.80;;;;;;4895718;29;20062;-86
2021/01/10 06:20:28;;;;;;;20.45;12.95;;;2.10;80.90;;;;;;4895152;29;20076;-87
2021/01/10 06:26:21;;;;;;;21.40;12.15;;;2.10;80.90;;;;;;4896300;29;20091;-86
2021/01/10 06:28:58;;;;;;;19.73;12.10;;;2.10;80.90;;;;;;4895524;29;20064;-87
2021/01/10 06:31:27;;;;;;;21.63;13.25;;;2.10;80.90;;;;;;4880664;29;20074;-87
2021/01/10 06:34:20;;;;;;;20.27;12.68;;;2.10;80.90;;;;;;4891576;29;20033;-86
2021/01/10 06:36:46;;;;;;;22.83;13.80;;;2.20;80.90;;;;;;4880948;29;20513;-88
2021/01/10 06:39:18;;;;;;;24.90;14.80;;;2.10;80.90;;;;;;4864934;29;20063;-88
2021/01/10 06:42:06;;;;;;;22.33;13.07;;;2.10;80.90;;;;;;4899035;29;20036;-87
2021/01/10 06:44:38;;;;;;;25.98;14.00;;;2.20;80.90;;;;;;4898210;29;20056;-88
2021/01/10 06:47:06;;;;;;;20.40;12.65;;;2.10;81.50;;;;;;4901120;29;20040;-92
2021/01/10 06:49:34;;;;;;;23.35;13.80;;;2.10;80.90;;;;;;4901579;29;20052;-92
2021/01/10 06:52:03;;;;;;;28.75;14.57;;;2.10;80.90;;;;;;4901548;29;20083;-91
2021/01/10 06:54:29;;;;;;;26.58;14.57;;;2.10;80.90;;;;;;4902313;29;20055;-91
2021/01/10 06:56:56;;;;;;;27.88;14.20;;;2.20;81.00;;;;;;4901830;29;20477;-92
2021/01/10 06:59:30;;;;;;;25.42;15.80;;;2.20;81.70;;;;;;4901624;29;20032;-92
2021/01/10 07:01:57;;;;;;;27.90;15.32;;;2.20;81.00;;;;;;4901499;29;20059;-91
2021/01/10 07:05:08;;;;;;;30.63;16.25;;;2.20;81.10;;;;;;4900785;29;20065;-90
2021/01/10 07:07:54;;;;;;;25.55;14.23;;;2.20;81.10;;;;;;4879921;29;20036;-92
2021/01/10 07:10:26;;;;;;;28.48;14.95;;;2.20;81.00;;;;;;4893757;23;20079;-91
2021/01/10 07:12:52;;;;;;;25.80;14.25;;;2.20;81.10;;;;;;4885558;29;20487;-91
2021/01/10 07:15:17;;;;;;;31.23;16.30;;;2.20;81.10;;;;;;4900453;29;20063;-91
2021/01/10 07:18:18;;;;;;;27.30;15.98;;;2.20;81.10;;;;;;4900683;29;20451;-91
2021/01/10 07:20:47;;;;;;;27.52;15.52;;;2.20;81.10;;;;;;4900791;29;20060;-91
2021/01/10 07:23:33;;;;;;;31.30;16.90;;;2.20;81.00;;;;;;4885371;29;20052;-91
2021/01/10 07:26:00;;;;;;;30.67;15.38;;;2.20;81.00;;;;;;4900488;29;20036;-89
2021/01/10 07:28:30;;;;;;;27.88;15.48;;;2.20;81.00;;;;;;4900685;29;20036;-89
2021/01/10 07:31:18;;;;;;;26.88;15.82;;;2.20;81.10;;;;;;4901006;29;20036;-89
2021/01/10 07:33:44;;;;;;;25.85;15.88;;;2.20;81.20;;;;;;4900880;29;20043;-89
2021/01/10 07:36:13;;;;;;;26.30;14.95;;;2.20;81.10;;;;;;4885366;29;20139;-89
2021/01/10 07:41:45;;;;;;;28.48;15.60;;;2.20;81.20;;;;;;4894932;29;20429;-89
2021/01/10 07:44:11;;;;;;;30.90;17.02;;;2.20;81.10;;;;;;4885130;29;20069;-89
2021/01/10 07:47:16;;;;;;;28.55;16.33;;;2.20;81.10;;;;;;4885264;29;20040;-89
2021/01/10 07:49:50;;;;;;;32.30;17.48;;;2.20;81.10;;;;;;4900381;29;20047;-89
2021/01/10 07:52:17;;;;;;;31.10;17.48;;;2.20;81.10;;;;;;4900524;29;20111;-90
2021/01/10 07:54:54;;;;;;;32.25;17.27;;;2.20;81.10;;;;;;4885098;29;20051;-89
2021/01/10 07:57:32;;;;;;;28.15;15.77;;;2.20;81.10;;;;;;4900827;29;20036;-89
2021/01/10 08:00:35;;;;;;;27.75;16.30;;;2.20;81.10;;;;;;4900869;29;20044;-90
2021/01/10 08:03:03;;;;;;;26.65;15.10;;;2.20;81.80;;;;;;4900724;29;20080;-89
2021/01/10 08:05:36;;;;;;;24.80;14.32;;;2.20;81.20;;;;;;4900542;29;20036;-89
2021/01/10 08:08:14;;;;;;;28.67;16.27;;;2.20;81.20;;;;;;4885230;29;20040;-89
2021/01/10 08:11:20;;;;;;;30.90;17.67;;;2.20;81.20;;;;;;4900588;29;20048;-89
2021/01/10 08:13:46;;;;;;;27.60;16.38;;;2.30;81.30;;;;;;4899304;29;20044;-91
2021/01/10 08:16:34;;;;;;;26.48;15.93;;;2.20;81.20;;;;;;4883670;29;20040;-92
2021/01/10 08:19:13;;;;;;;26.60;15.30;;;2.20;81.90;;;;;;4897785;29;20119;-91
2021/01/10 08:21:48;;;;;;;26.45;15.27;;;2.20;81.30;;;;;;4897866;29;20126;-92
2021/01/10 08:24:15;;;;;;;24.38;14.48;;;2.20;81.30;;;;;;4898661;29;20554;-92
2021/01/10 08:26:46;;;;;;;24.00;14.27;;;2.20;81.30;;;;;;4908090;29;20129;-91
2021/01/10 08:29:36;;;;;;;22.27;13.88;;;2.30;81.40;;;;;;4896270;29;20042;-92
2021/01/10 08:35:01;;;;;;;24.10;14.75;;;2.30;81.30;;;;;;4884800;29;20108;-91
2021/01/10 08:37:28;;;;;;;24.23;13.75;;;2.30;81.30;;;;;;4874221;29;20037;-92
2021/01/10 08:40:31;;;;;;;24.23;14.60;;;2.30;81.30;;;;;;4874418;29;20044;-92
2021/01/10 08:43:10;;;;;;;24.40;14.13;;;2.30;81.40;;;;;;4891900;29;20044;-91
2021/01/10 08:45:47;;;;;;;22.58;14.73;;;2.30;81.30;;;;;;4870782;29;20139;-89
2021/01/10 08:48:13;;;;;;;23.67;14.07;;;2.30;81.30;;;;;;4895067;29;20124;-89
2021/01/10 08:51:33;;;;;;;20.23;13.55;;;2.30;81.30;;;;;;4899498;29;20139;-90
2021/01/10 08:54:21;;;;;;;21.10;13.02;;;2.40;81.30;;;;;;4848669;29;20049;-89
2021/01/10 08:59:58;;;;;;;19.35;12.88;;;2.40;81.20;;;;;;4885066;29;20515;-90
2021/01/10 09:06:49;;;;;;;22.23;11.82;;;2.40;81.30;;;;;;4878413;29;20047;-89
2021/01/10 09:09:44;;;;;;;;;;;2.40;81.20;;;;;;4860761;29;20087;-89
2021/01/10 09:12:30;;;;;;;15.88;10.93;;;2.40;81.20;;;;;;4844736;29;19924;-89
2021/01/10 09:21:36;;;;;;;20.38;13.45;;;2.40;81.20;;;;;;4770191;30;20035;-88
2021/01/10 09:24:17;;;;;;;18.63;11.90;;;2.50;81.30;;;;;;4818619;29;20137;-88
2021/01/10 09:26:49;;;;;;;18.60;11.85;;;2.40;81.30;;;;;;4807835;29;20046;-88
2021/01/10 09:29:33;;;;;;;19.38;13.13;;;2.50;81.30;;;;;;4807914;29;20080;-89
2021/01/10 09:31:59;;;;;;;20.17;13.75;;;2.50;81.40;;;;;;4805096;29;20045;-89
2021/01/10 09:35:04;;;;;;;18.60;12.95;;;2.50;81.40;;;;;;4866651;29;20133;-89
2021/01/10 09:37:36;;;;;;;18.75;12.60;;;2.50;81.30;;;;;;4879379;29;20041;-88
2021/01/10 09:40:18;;;;;;;20.52;13.52;;;2.50;81.30;;;;;;4858886;29;20060;-89
2021/01/10 09:42:59;;;;;;;21.08;13.88;;;2.60;81.30;;;;;;4863903;29;20041;-88
2021/01/10 09:45:36;;;;;;;18.98;12.90;;;2.60;81.20;;;;;;4881466;29;20040;-89
2021/01/10 09:48:16;;;;;;;21.15;13.90;;;2.60;81.20;;;;;;4875924;29;20480;-89
2021/01/10 09:50:41;;;;;;;19.48;13.75;;;2.60;81.20;;;;;;4878017;29;20044;-89
2021/01/10 09:53:37;;;;;;;21.60;14.65;;;2.60;81.20;;;;;;4871609;29;20373;-89
2021/01/10 09:56:02;;;;;;;22.17;14.63;;;2.60;81.20;;;;;;4853131;29;20041;-88
2021/01/10 09:58:31;;;;;;;23.35;15.75;;;2.60;81.20;;;;;;4878503;29;20147;-88
2021/01/10 10:00:58;;;;;;;23.88;14.95;;;2.60;81.40;;;;;;4881018;29;20045;-89
2021/01/10 10:03:24;;;;;;;22.85;14.93;;;2.70;81.40;;;;;;4879546;29;20478;-89
2021/01/10 10:05:58;;;;;;;21.30;14.48;;;2.70;81.40;;;;;;4863251;29;20499;-89
2021/01/10 10:08:24;;;;;;;20.55;14.45;;;2.70;81.40;;;;;;4861839;29;20512;-89
2021/01/10 10:11:17;;;;;;;21.80;14.50;;;2.70;81.40;;;;;;4858015;29;20056;-90
2021/01/10 10:13:43;;;;;;;21.20;13.77;;;2.70;81.40;;;;;;4888982;29;20044;-90
2021/01/10 10:16:16;;;;;;;19.33;13.30;;;2.70;81.40;;;;;;4884717;29;20067;-89
2021/01/10 10:18:45;;;;;;;19.40;13.25;;;2.70;81.30;;;;;;4898974;29;20040;-90
2021/01/10 10:21:10;;;;;;;19.67;14.03;;;2.70;81.30;;;;;;4900395;29;20039;-90
2021/01/10 10:23:41;;;;;;;19.45;13.77;;;2.80;81.30;;;;;;4884671;29;20284;-89
2021/01/10 10:26:06;;;;;;;19.00;13.15;;;2.80;81.20;;;;;;4900356;29;20048;-89
2021/01/10 10:28:32;;;;;;;22.13;13.63;;;2.80;81.20;;;;;;4888094;29;20043;-89
2021/01/10 10:30:58;;;;;;;19.48;13.10;;;2.80;81.20;;;;;;4875732;29;20060;-90
2021/01/10 10:33:23;;;;;;;19.85;13.85;;;2.80;81.20;;;;;;4897153;29;20391;-89
2021/01/10 10:35:52;;;;;;;18.65;12.85;;;2.80;81.10;;;;;;4884297;29;20063;-89
2021/01/10 10:38:18;;;;;;;20.00;13.88;;;2.80;81.10;;;;;;4884604;29;20091;-89
2021/01/10 10:40:43;;;;;;;21.27;13.82;;;2.90;81.20;;;;;;4868560;29;20514;-90
2021/01/10 10:43:09;;;;;;;18.42;13.63;;;2.90;81.20;;;;;;4899497;29;20048;-90
2021/01/10 10:45:35;;;;;;;20.50;14.00;;;2.80;81.70;;;;;;4871438;29;20557;-90
2021/01/10 10:48:00;;;;;;;20.45;13.50;;;2.90;81.20;;;;;;4876261;29;20387;-89
2021/01/10 10:50:26;;;;;;;22.15;15.05;;;2.90;81.20;;;;;;4879849;29;20063;-90
2021/01/10 10:52:52;;;;;;;20.15;15.15;;;2.90;81.20;;;;;;4878926;29;20045;-90
2021/01/10 10:55:19;;;;;;;24.05;16.42;;;2.90;81.20;;;;;;4902330;29;20059;-90
2021/01/10 10:57:44;;;;;;;23.13;15.70;;;2.90;81.20;;;;;;4879784;29;20146;-89
2021/01/10 11:00:12;;;;;;;22.30;16.02;;;2.90;81.20;;;;;;4868939;29;20040;-89
2021/01/10 11:02:38;;;;;;;21.10;15.57;;;2.90;81.20;;;;;;4889607;29;20041;-90
2021/01/10 11:05:06;;;;;;;22.33;15.70;;;2.90;81.20;;;;;;4865686;29;20054;-90
2021/01/10 11:07:35;;;;;;;22.42;15.20;;;3.00;81.20;;;;;;4880706;29;20044;-90
2021/01/10 11:10:00;;;;;;;20.30;14.57;;;3.00;81.20;;;;;;4890508;29;20060;-90
2021/01/10 11:12:52;;;;;;;21.17;15.55;;;3.00;81.20;;;;;;4900158;29;20092;-90
2021/01/10 11:15:17;;;;;;;25.55;17.17;;;3.00;81.30;;;;;;4891144;29;20041;-90
2021/01/10 11:17:43;;;;;;;24.60;17.23;;;3.00;81.40;;;;;;4865676;29;20380;-91
2021/01/10 11:20:09;;;;;;;23.35;17.67;;;3.00;81.40;;;;;;4866085;29;20134;-90
2021/01/10 11:22:35;;;;;;;26.77;19.52;;;3.00;81.40;;;;;;4880792;29;20041;-90
2021/01/10 11:25:05;;;;;;;25.60;17.98;;;3.00;81.50;;;;;;4893273;29;20402;-90
2021/01/10 11:27:31;;;;;;;24.98;17.15;;;3.10;81.50;;;;;;4892171;29;20029;-91
2021/01/10 11:29:56;;;;;;;23.15;16.08;;;3.10;81.50;;;;;;4880325;29;20035;-90
2021/01/10 11:32:22;;;;;;;22.25;15.85;;;3.10;81.50;;;;;;4879783;29;20045;-90
2021/01/10 11:34:48;;;;;;;23.27;17.05;;;3.10;81.40;;;;;;4879984;29;20051;-92
2021/01/10 11:37:14;;;;;;;22.25;16.77;;;3.20;81.40;;;;;;4892507;29;20040;-90
2021/01/10 11:39:39;;;;;;;23.35;16.08;;;3.10;81.30;;;;;;4881127;29;20505;-90
2021/01/10 11:42:06;;;;;;;22.05;15.63;;;3.20;81.30;;;;;;4865712;29;20064;-90
2021/01/10 11:44:31;;;;;;;22.17;15.90;;;3.20;81.30;;;;;;4880654;29;20104;-90
2021/01/10 11:47:00;;;;;;;22.52;15.80;;;3.20;81.30;;;;;;4915601;29;20124;-91
2021/01/10 11:49:28;;;;;;;20.92;14.45;;;3.20;81.30;;;;;;4899945;29;20040;-90
2021/01/10 11:51:55;;;;;;;20.73;14.75;;;3.20;81.30;;;;;;4878229;29;20037;-91
2021/01/10 11:54:23;;;;;;;24.80;18.05;;;3.20;81.30;;;;;;4890690;29;20474;-90
2021/01/10 11:56:49;;;;;;;25.80;18.55;;;3.30;81.40;;;;;;4866087;29;20136;-90
2021/01/10 11:59:16;;;;;;;25.75;18.52;;;3.30;81.50;;;;;;4865896;29;20076;-90
2021/01/10 12:01:43;;;;;;;26.73;18.75;;;3.30;81.50;;;;;;4887420;29;20096;-90
2021/01/10 12:04:09;;;;;;;27.83;18.55;;;3.30;81.50;;;;;;4903539;29;20134;-90
2021/01/10 12:06:36;;;;;;;25.73;18.10;;;3.30;81.50;;;;;;4886367;29;20060;-90
2021/01/10 12:09:08;;;;;;;26.25;19.30;;;3.30;81.50;;;;;;4902963;29;20063;-91
2021/01/10 12:11:34;;;;;;;25.50;19.30;;;3.40;81.70;;;;;;4900833;29;20048;-91
2021/01/10 12:14:07;;;;;;;28.17;20.50;;;3.40;81.70;;;;;;4882588;29;20049;-91
2021/01/10 12:16:54;;;;;;;29.98;21.95;;;3.40;81.70;;;;;;4884642;29;20104;-93
2021/01/10 12:19:22;;;;;;;35.33;23.95;;;3.40;82.00;;;;;;4885493;29;20044;-92
2021/01/10 12:21:48;;;;;;;33.53;22.70;;;3.50;82.30;;;;;;4901535;29;20163;-93
2021/01/10 12:25:11;;;;;;;37.80;25.08;;;3.50;82.40;;;;;;4893930;29;20049;-92
2021/01/10 12:30:59;;;;;;;33.63;23.00;;;3.60;82.90;;;;;;4911711;29;20116;-91
2021/01/10 12:39:54;;;;;;;25.80;18.02;;;3.70;82.80;;;;;;4881353;29;20074;-93
2021/01/10 12:46:15;;;;;;;24.38;16.88;;;3.80;83.00;;;;;;4920912;29;20509;-93
2021/01/10 12:49:00;;;;;;;26.48;18.15;;;3.80;82.90;;;;;;4903402;29;20064;-93
2021/01/10 12:51:37;;;;;;;24.77;18.48;;;3.80;83.00;;;;;;4887482;29;20130;-89
2021/01/10 12:54:20;;;;;;;27.30;18.40;;;3.80;82.90;;;;;;4886255;29;20096;-88
2021/01/10 12:56:56;;;;;;;25.20;19.00;;;3.90;83.00;;;;;;4854978;29;20043;-88
2021/01/10 12:59:56;;;;;;;29.48;19.75;;;3.90;83.10;;;;;;4901597;29;20040;-88
2021/01/10 13:02:22;;;;;;;29.98;20.83;;;3.90;83.10;;;;;;4890243;29;20508;-88
2021/01/10 13:04:47;;;;;;;31.48;21.05;;;4.00;83.20;;;;;;4885384;29;20130;-88
2021/01/10 13:07:13;;;;;;;28.02;20.05;;;4.00;83.20;;;;;;4885998;29;20404;-88
2021/01/10 13:09:39;;;;;;;25.95;18.75;;;4.00;83.30;;;;;;4923835;23;20156;-88
2021/01/10 13:12:08;;;;;;;25.42;18.35;;;4.00;83.20;;;;;;4904044;29;20067;-88
2021/01/10 13:14:35;;;;;;;;;;;4.10;83.10;;;;;;4919847;29;20039;-88
2021/01/10 13:17:01;;;;;;;28.55;21.08;;;4.10;83.00;;;;;;4919349;29;19914;-88
2021/01/10 13:19:47;;;;;;;29.20;19.50;;;4.10;83.20;;;;;;4935872;29;20036;-88
2021/01/10 13:22:13;;;;;;;30.33;22.38;;;4.20;83.50;;;;;;4907154;29;20096;-88
2021/01/10 13:24:39;;;;;;;30.10;20.65;;;4.20;83.60;;;;;;4903845;29;20430;-88
2021/01/10 13:27:07;;;;;;;28.38;20.40;;;4.20;83.70;;;;;;4920193;29;20137;-87
2021/01/10 13:29:36;;;;;;;25.75;18.83;;;4.30;83.80;;;;;;4919752;29;20031;-87
2021/01/10 13:32:04;;;;;;;;;;;4.30;83.70;;;;;;4919877;29;20040;-87
2021/01/10 13:34:29;;;;;;;24.80;17.38;;;4.30;83.50;;;;;;4920126;29;19911;-87
2021/01/10 13:36:59;;;;;;;23.00;17.02;;;4.30;83.50;;;;;;4903642;29;20044;-88
2021/01/10 13:39:34;;;;;;;26.55;18.58;;;4.30;83.50;;;;;;4903934;29;20128;-87